sensor_id;sensor_type;location;lat;lon;timestamp;temperature;humidity
42715;DHT22;28351;51.480;5.706;2022-07-29T00:01:15;17.40;99.90
42715;DHT22;28351;51.480;5.706;2022-07-29T00:03:41;17.30;99.90
42715;DHT22;28351;51.480;5.706;2022-07-29T00:06:06;17.00;99.90
42715;DHT22;28351;51.480;5.706;2022-07-29T00:08:32;16.70;99.90
42715;DHT22;28351;51.480;5.706;2022-07-29T00:10:58;16.40;99.90
42715;DHT22;28351;51.480;5.706;2022-07-29T00:13:23;16.30;99.90
42715;DHT22;28351;51.480;5.706;2022-07-29T00:15:49;16.30;99.90
42715;DHT22;28351;51.480;5.706;2022-07-29T00:18:14;16.20;99.90
42715;DHT22;28351;51.480;5.706;2022-07-29T00:20:40;16.00;99.90
42715;DHT22;28351;51.480;5.706;2022-07-29T00:23:06;15.80;99.90
42715;DHT22;28351;51.480;5.706;2022-07-29T00:25:31;15.70;99.90
42715;DHT22;28351;51.480;5.706;2022-07-29T00:27:57;15.70;99.90
42715;DHT22;28351;51.480;5.706;2022-07-29T00:30:23;15.70;99.90
42715;DHT22;28351;51.480;5.706;2022-07-29T00:32:48;15.80;99.90
42715;DHT22;28351;51.480;5.706;2022-07-29T00:35:14;15.70;99.90
42715;DHT22;28351;51.480;5.706;2022-07-29T00:37:58;15.70;99.90
42715;DHT22;28351;51.480;5.706;2022-07-29T00:40:24;15.80;99.90
42715;DHT22;28351;51.480;5.706;2022-07-29T00:42:52;15.90;99.90
42715;DHT22;28351;51.480;5.706;2022-07-29T00:45:18;15.90;99.90
42715;DHT22;28351;51.480;5.706;2022-07-29T00:47:44;15.90;99.90
42715;DHT22;28351;51.480;5.706;2022-07-29T00:50:11;15.90;99.90
42715;DHT22;28351;51.480;5.706;2022-07-29T00:52:39;15.80;99.90
42715;DHT22;28351;51.480;5.706;2022-07-29T00:55:13;15.80;99.90
42715;DHT22;28351;51.480;5.706;2022-07-29T00:57:40;15.80;99.90
42715;DHT22;28351;51.480;5.706;2022-07-29T01:00:09;15.70;99.90
42715;DHT22;28351;51.480;5.706;2022-07-29T01:02:35;15.60;99.90
42715;DHT22;28351;51.480;5.706;2022-07-29T01:05:01;15.60;99.90
42715;DHT22;28351;51.480;5.706;2022-07-29T01:07:28;15.60;99.90
42715;DHT22;28351;51.480;5.706;2022-07-29T01:09:55;15.60;99.90
42715;DHT22;28351;51.480;5.706;2022-07-29T01:12:27;15.50;99.90
42715;DHT22;28351;51.480;5.706;2022-07-29T01:14:55;15.50;99.90
42715;DHT22;28351;51.480;5.706;2022-07-29T01:17:31;15.60;99.90
42715;DHT22;28351;51.480;5.706;2022-07-29T01:20:14;15.70;99.90
42715;DHT22;28351;51.480;5.706;2022-07-29T01:31:14;15.70;99.90
42715;DHT22;28351;51.480;5.706;2022-07-29T01:33:47;15.60;99.90
42715;DHT22;28351;51.480;5.706;2022-07-29T01:36:32;15.50;99.90
42715;DHT22;28351;51.480;5.706;2022-07-29T01:39:27;15.30;99.90
42715;DHT22;28351;51.480;5.706;2022-07-29T01:42:15;15.20;99.90
42715;DHT22;28351;51.480;5.706;2022-07-29T01:45:01;15.10;99.90
42715;DHT22;28351;51.480;5.706;2022-07-29T01:47:34;15.10;99.90
42715;DHT22;28351;51.480;5.706;2022-07-29T01:50:07;15.00;99.90
42715;DHT22;28351;51.480;5.706;2022-07-29T01:52:42;14.90;99.90
42715;DHT22;28351;51.480;5.706;2022-07-29T01:55:14;15.00;99.90
42715;DHT22;28351;51.480;5.706;2022-07-29T01:57:42;15.10;99.90
42715;DHT22;28351;51.480;5.706;2022-07-29T02:00:09;15.20;99.90
42715;DHT22;28351;51.480;5.706;2022-07-29T02:02:37;15.30;99.90
42715;DHT22;28351;51.480;5.706;2022-07-29T02:05:06;15.30;99.90
42715;DHT22;28351;51.480;5.706;2022-07-29T02:07:33;15.30;99.90
42715;DHT22;28351;51.480;5.706;2022-07-29T02:10:00;15.20;99.90
42715;DHT22;28351;51.480;5.706;2022-07-29T02:12:28;15.20;99.90
42715;DHT22;28351;51.480;5.706;2022-07-29T02:14:55;15.20;99.90
42715;DHT22;28351;51.480;5.706;2022-07-29T02:17:26;15.10;99.90
42715;DHT22;28351;51.480;5.706;2022-07-29T02:19:57;15.10;99.90
42715;DHT22;28351;51.480;5.706;2022-07-29T02:22:26;15.00;99.90
42715;DHT22;28351;51.480;5.706;2022-07-29T02:24:52;15.00;99.90
42715;DHT22;28351;51.480;5.706;2022-07-29T02:27:19;15.00;99.90
42715;DHT22;28351;51.480;5.706;2022-07-29T02:29:46;15.00;99.90
42715;DHT22;28351;51.480;5.706;2022-07-29T02:32:13;15.00;99.90
42715;DHT22;28351;51.480;5.706;2022-07-29T02:34:41;15.00;99.90
42715;DHT22;28351;51.480;5.706;2022-07-29T02:37:10;15.00;99.90
42715;DHT22;28351;51.480;5.706;2022-07-29T02:39:37;15.00;99.90
42715;DHT22;28351;51.480;5.706;2022-07-29T02:42:07;15.10;99.90
42715;DHT22;28351;51.480;5.706;2022-07-29T02:44:34;15.00;99.90
42715;DHT22;28351;51.480;5.706;2022-07-29T02:50:05;15.00;99.90
42715;DHT22;28351;51.480;5.706;2022-07-29T02:52:42;14.90;99.90
42715;DHT22;28351;51.480;5.706;2022-07-29T02:55:36;14.90;99.90
42715;DHT22;28351;51.480;5.706;2022-07-29T02:58:03;15.00;99.90
42715;DHT22;28351;51.480;5.706;2022-07-29T03:00:33;15.00;99.90
42715;DHT22;28351;51.480;5.706;2022-07-29T03:03:04;14.90;99.90
42715;DHT22;28351;51.480;5.706;2022-07-29T03:05:31;15.00;99.90
42715;DHT22;28351;51.480;5.706;2022-07-29T03:08:00;14.90;99.90
42715;DHT22;28351;51.480;5.706;2022-07-29T03:10:26;14.90;99.90
42715;DHT22;28351;51.480;5.706;2022-07-29T03:12:52;15.00;99.90
42715;DHT22;28351;51.480;5.706;2022-07-29T03:15:20;15.00;99.90
42715;DHT22;28351;51.480;5.706;2022-07-29T03:17:46;15.00;99.90
42715;DHT22;28351;51.480;5.706;2022-07-29T03:20:12;15.00;99.90
42715;DHT22;28351;51.480;5.706;2022-07-29T03:22:40;15.00;99.90
42715;DHT22;28351;51.480;5.706;2022-07-29T03:25:12;15.00;99.90
42715;DHT22;28351;51.480;5.706;2022-07-29T03:27:38;15.00;99.90
42715;DHT22;28351;51.480;5.706;2022-07-29T03:30:06;15.10;99.90
42715;DHT22;28351;51.480;5.706;2022-07-29T03:32:31;15.10;99.90
42715;DHT22;28351;51.480;5.706;2022-07-29T03:34:57;15.10;99.90
42715;DHT22;28351;51.480;5.706;2022-07-29T03:37:23;15.20;99.90
42715;DHT22;28351;51.480;5.706;2022-07-29T03:39:49;15.20;99.90
42715;DHT22;28351;51.480;5.706;2022-07-29T03:42:17;15.20;99.90
42715;DHT22;28351;51.480;5.706;2022-07-29T03:44:47;15.20;99.90
42715;DHT22;28351;51.480;5.706;2022-07-29T03:47:14;15.10;99.90
42715;DHT22;28351;51.480;5.706;2022-07-29T03:49:42;15.10;99.90
42715;DHT22;28351;51.480;5.706;2022-07-29T03:52:09;15.00;99.90
42715;DHT22;28351;51.480;5.706;2022-07-29T03:54:36;15.00;99.90
42715;DHT22;28351;51.480;5.706;2022-07-29T03:57:02;15.00;99.90
42715;DHT22;28351;51.480;5.706;2022-07-29T03:59:30;15.00;99.90
42715;DHT22;28351;51.480;5.706;2022-07-29T04:01:57;14.90;99.90
42715;DHT22;28351;51.480;5.706;2022-07-29T04:04:23;14.80;99.90
42715;DHT22;28351;51.480;5.706;2022-07-29T04:06:51;14.80;99.90
42715;DHT22;28351;51.480;5.706;2022-07-29T04:09:17;14.80;99.90
42715;DHT22;28351;51.480;5.706;2022-07-29T04:11:43;14.90;99.90
42715;DHT22;28351;51.480;5.706;2022-07-29T04:14:09;14.80;99.90
42715;DHT22;28351;51.480;5.706;2022-07-29T04:16:34;14.80;99.90
42715;DHT22;28351;51.480;5.706;2022-07-29T04:19:00;14.80;99.90
42715;DHT22;28351;51.480;5.706;2022-07-29T04:21:25;14.70;99.90
42715;DHT22;28351;51.480;5.706;2022-07-29T04:23:51;14.70;99.90
42715;DHT22;28351;51.480;5.706;2022-07-29T04:26:18;14.70;99.90
42715;DHT22;28351;51.480;5.706;2022-07-29T04:28:43;14.60;99.90
42715;DHT22;28351;51.480;5.706;2022-07-29T04:31:10;14.60;99.90
42715;DHT22;28351;51.480;5.706;2022-07-29T04:33:36;14.60;99.90
42715;DHT22;28351;51.480;5.706;2022-07-29T04:36:02;14.50;99.90
42715;DHT22;28351;51.480;5.706;2022-07-29T04:38:27;14.60;99.90
42715;DHT22;28351;51.480;5.706;2022-07-29T04:40:53;14.60;99.90
42715;DHT22;28351;51.480;5.706;2022-07-29T04:43:18;14.60;99.90
42715;DHT22;28351;51.480;5.706;2022-07-29T04:45:45;14.60;99.90
42715;DHT22;28351;51.480;5.706;2022-07-29T04:48:11;14.50;99.90
42715;DHT22;28351;51.480;5.706;2022-07-29T04:50:40;14.60;99.90
42715;DHT22;28351;51.480;5.706;2022-07-29T04:53:06;14.60;99.90
42715;DHT22;28351;51.480;5.706;2022-07-29T04:55:32;14.70;99.90
42715;DHT22;28351;51.480;5.706;2022-07-29T04:58:01;14.70;99.90
42715;DHT22;28351;51.480;5.706;2022-07-29T05:00:30;14.80;99.90
42715;DHT22;28351;51.480;5.706;2022-07-29T05:02:55;14.80;99.90
42715;DHT22;28351;51.480;5.706;2022-07-29T05:05:21;14.90;99.90
42715;DHT22;28351;51.480;5.706;2022-07-29T05:07:46;14.90;99.90
42715;DHT22;28351;51.480;5.706;2022-07-29T05:10:12;15.00;99.90
42715;DHT22;28351;51.480;5.706;2022-07-29T05:12:38;15.00;99.90
42715;DHT22;28351;51.480;5.706;2022-07-29T05:15:03;14.90;99.90
42715;DHT22;28351;51.480;5.706;2022-07-29T05:17:29;15.00;99.90
42715;DHT22;28351;51.480;5.706;2022-07-29T05:19:55;14.90;99.90
42715;DHT22;28351;51.480;5.706;2022-07-29T05:22:21;14.90;99.90
42715;DHT22;28351;51.480;5.706;2022-07-29T05:24:46;14.80;99.90
42715;DHT22;28351;51.480;5.706;2022-07-29T05:27:13;14.80;99.90
42715;DHT22;28351;51.480;5.706;2022-07-29T05:29:38;14.80;99.90
42715;DHT22;28351;51.480;5.706;2022-07-29T05:32:04;14.90;99.90
42715;DHT22;28351;51.480;5.706;2022-07-29T05:34:30;14.90;99.90
42715;DHT22;28351;51.480;5.706;2022-07-29T05:36:56;14.90;99.90
42715;DHT22;28351;51.480;5.706;2022-07-29T05:39:22;14.80;99.90
42715;DHT22;28351;51.480;5.706;2022-07-29T05:41:48;14.90;99.90
42715;DHT22;28351;51.480;5.706;2022-07-29T05:44:16;14.90;99.90
42715;DHT22;28351;51.480;5.706;2022-07-29T05:46:45;14.90;99.90
42715;DHT22;28351;51.480;5.706;2022-07-29T05:49:10;14.90;99.90
42715;DHT22;28351;51.480;5.706;2022-07-29T05:51:36;14.90;99.90
42715;DHT22;28351;51.480;5.706;2022-07-29T05:54:02;14.80;99.90
42715;DHT22;28351;51.480;5.706;2022-07-29T05:56:27;14.80;99.90
42715;DHT22;28351;51.480;5.706;2022-07-29T05:58:53;14.80;99.90
42715;DHT22;28351;51.480;5.706;2022-07-29T06:01:19;14.90;99.90
42715;DHT22;28351;51.480;5.706;2022-07-29T06:03:45;14.90;99.90
42715;DHT22;28351;51.480;5.706;2022-07-29T06:06:10;15.10;99.90
42715;DHT22;28351;51.480;5.706;2022-07-29T06:08:36;15.10;99.90
42715;DHT22;28351;51.480;5.706;2022-07-29T06:11:03;15.10;99.90
42715;DHT22;28351;51.480;5.706;2022-07-29T06:13:29;15.00;99.90
42715;DHT22;28351;51.480;5.706;2022-07-29T06:15:55;15.00;99.90
42715;DHT22;28351;51.480;5.706;2022-07-29T06:18:21;15.00;99.90
42715;DHT22;28351;51.480;5.706;2022-07-29T06:20:52;15.00;99.90
42715;DHT22;28351;51.480;5.706;2022-07-29T06:23:18;14.90;99.90
42715;DHT22;28351;51.480;5.706;2022-07-29T06:25:44;14.90;99.90
42715;DHT22;28351;51.480;5.706;2022-07-29T06:28:10;14.90;99.90
42715;DHT22;28351;51.480;5.706;2022-07-29T06:30:36;15.00;99.90
42715;DHT22;28351;51.480;5.706;2022-07-29T06:33:03;14.90;99.90
42715;DHT22;28351;51.480;5.706;2022-07-29T06:35:29;15.00;99.90
42715;DHT22;28351;51.480;5.706;2022-07-29T06:37:54;15.10;99.90
42715;DHT22;28351;51.480;5.706;2022-07-29T06:40:20;15.20;99.90
42715;DHT22;28351;51.480;5.706;2022-07-29T06:43:04;15.20;99.90
42715;DHT22;28351;51.480;5.706;2022-07-29T06:45:33;15.20;99.90
42715;DHT22;28351;51.480;5.706;2022-07-29T06:47:58;15.30;99.90
42715;DHT22;28351;51.480;5.706;2022-07-29T06:50:25;15.30;99.90
42715;DHT22;28351;51.480;5.706;2022-07-29T06:52:50;15.40;99.90
42715;DHT22;28351;51.480;5.706;2022-07-29T06:55:16;15.40;99.90
42715;DHT22;28351;51.480;5.706;2022-07-29T06:57:44;15.50;99.90
42715;DHT22;28351;51.480;5.706;2022-07-29T07:00:11;15.50;99.90
42715;DHT22;28351;51.480;5.706;2022-07-29T07:02:36;15.50;99.90
42715;DHT22;28351;51.480;5.706;2022-07-29T07:05:02;15.50;99.90
42715;DHT22;28351;51.480;5.706;2022-07-29T07:07:28;15.50;99.90
42715;DHT22;28351;51.480;5.706;2022-07-29T07:09:59;15.50;99.90
42715;DHT22;28351;51.480;5.706;2022-07-29T07:12:25;15.70;99.90
42715;DHT22;28351;51.480;5.706;2022-07-29T07:14:50;15.80;99.90
42715;DHT22;28351;51.480;5.706;2022-07-29T07:17:16;15.80;99.90
42715;DHT22;28351;51.480;5.706;2022-07-29T07:19:42;15.90;99.90
42715;DHT22;28351;51.480;5.706;2022-07-29T07:22:07;16.00;99.90
42715;DHT22;28351;51.480;5.706;2022-07-29T07:24:33;16.10;99.90
42715;DHT22;28351;51.480;5.706;2022-07-29T07:26:58;16.30;99.90
42715;DHT22;28351;51.480;5.706;2022-07-29T07:29:24;16.40;99.90
42715;DHT22;28351;51.480;5.706;2022-07-29T07:31:50;16.60;99.90
42715;DHT22;28351;51.480;5.706;2022-07-29T07:34:15;16.80;99.90
42715;DHT22;28351;51.480;5.706;2022-07-29T07:36:41;17.00;99.90
42715;DHT22;28351;51.480;5.706;2022-07-29T07:39:06;17.20;99.90
42715;DHT22;28351;51.480;5.706;2022-07-29T07:41:32;17.20;99.90
42715;DHT22;28351;51.480;5.706;2022-07-29T07:43:58;17.20;99.90
42715;DHT22;28351;51.480;5.706;2022-07-29T07:46:24;17.30;99.90
42715;DHT22;28351;51.480;5.706;2022-07-29T07:48:49;17.10;99.90
42715;DHT22;28351;51.480;5.706;2022-07-29T07:51:15;17.10;99.90
42715;DHT22;28351;51.480;5.706;2022-07-29T07:53:40;17.00;99.90
42715;DHT22;28351;51.480;5.706;2022-07-29T07:56:06;16.90;99.90
42715;DHT22;28351;51.480;5.706;2022-07-29T07:58:32;16.70;99.90
42715;DHT22;28351;51.480;5.706;2022-07-29T08:00:58;16.90;99.90
42715;DHT22;28351;51.480;5.706;2022-07-29T08:03:23;17.10;99.90
42715;DHT22;28351;51.480;5.706;2022-07-29T08:05:49;17.20;99.90
42715;DHT22;28351;51.480;5.706;2022-07-29T08:08:17;17.20;99.90
42715;DHT22;28351;51.480;5.706;2022-07-29T08:10:42;17.30;99.90
42715;DHT22;28351;51.480;5.706;2022-07-29T08:13:18;17.40;99.90
42715;DHT22;28351;51.480;5.706;2022-07-29T08:15:44;17.70;99.90
42715;DHT22;28351;51.480;5.706;2022-07-29T08:18:13;17.70;99.90
42715;DHT22;28351;51.480;5.706;2022-07-29T08:20:39;17.90;99.90
42715;DHT22;28351;51.480;5.706;2022-07-29T08:23:07;18.00;99.90
42715;DHT22;28351;51.480;5.706;2022-07-29T08:25:37;17.80;99.90
42715;DHT22;28351;51.480;5.706;2022-07-29T08:28:04;17.80;99.90
42715;DHT22;28351;51.480;5.706;2022-07-29T08:30:30;17.90;99.90
42715;DHT22;28351;51.480;5.706;2022-07-29T08:32:59;18.00;99.90
42715;DHT22;28351;51.480;5.706;2022-07-29T08:35:24;18.00;99.90
42715;DHT22;28351;51.480;5.706;2022-07-29T08:37:53;18.20;99.90
42715;DHT22;28351;51.480;5.706;2022-07-29T08:40:20;18.40;99.90
42715;DHT22;28351;51.480;5.706;2022-07-29T08:42:46;18.60;99.90
42715;DHT22;28351;51.480;5.706;2022-07-29T08:45:12;18.70;99.90
42715;DHT22;28351;51.480;5.706;2022-07-29T08:47:41;18.90;99.90
42715;DHT22;28351;51.480;5.706;2022-07-29T08:50:08;18.90;99.90
42715;DHT22;28351;51.480;5.706;2022-07-29T08:52:38;18.90;99.90
42715;DHT22;28351;51.480;5.706;2022-07-29T08:55:14;19.00;99.90
42715;DHT22;28351;51.480;5.706;2022-07-29T08:57:46;19.10;99.90
42715;DHT22;28351;51.480;5.706;2022-07-29T09:00:12;19.10;99.90
42715;DHT22;28351;51.480;5.706;2022-07-29T09:02:44;19.20;99.90
42715;DHT22;28351;51.480;5.706;2022-07-29T09:05:12;19.50;99.90
42715;DHT22;28351;51.480;5.706;2022-07-29T09:07:39;19.60;99.90
42715;DHT22;28351;51.480;5.706;2022-07-29T09:10:05;19.70;99.90
42715;DHT22;28351;51.480;5.706;2022-07-29T09:12:31;19.90;99.90
42715;DHT22;28351;51.480;5.706;2022-07-29T09:14:57;19.90;99.90
42715;DHT22;28351;51.480;5.706;2022-07-29T09:17:43;20.10;99.90
42715;DHT22;28351;51.480;5.706;2022-07-29T09:20:11;20.30;99.90
42715;DHT22;28351;51.480;5.706;2022-07-29T09:22:37;20.40;99.90
42715;DHT22;28351;51.480;5.706;2022-07-29T09:25:03;20.70;99.90
42715;DHT22;28351;51.480;5.706;2022-07-29T09:27:29;20.80;99.90
42715;DHT22;28351;51.480;5.706;2022-07-29T09:29:56;20.90;99.90
42715;DHT22;28351;51.480;5.706;2022-07-29T09:32:22;21.10;99.90
42715;DHT22;28351;51.480;5.706;2022-07-29T09:34:48;21.30;99.90
42715;DHT22;28351;51.480;5.706;2022-07-29T09:37:26;21.40;99.90
42715;DHT22;28351;51.480;5.706;2022-07-29T09:39:52;21.60;99.90
42715;DHT22;28351;51.480;5.706;2022-07-29T09:42:27;21.80;99.90
42715;DHT22;28351;51.480;5.706;2022-07-29T09:44:53;21.90;99.90
42715;DHT22;28351;51.480;5.706;2022-07-29T09:47:19;22.00;99.90
42715;DHT22;28351;51.480;5.706;2022-07-29T09:52:16;22.00;99.90
42715;DHT22;28351;51.480;5.706;2022-07-29T09:54:42;22.10;99.90
42715;DHT22;28351;51.480;5.706;2022-07-29T09:57:09;22.40;99.90
42715;DHT22;28351;51.480;5.706;2022-07-29T09:59:38;22.40;99.90
42715;DHT22;28351;51.480;5.706;2022-07-29T10:02:14;22.60;99.90
42715;DHT22;28351;51.480;5.706;2022-07-29T10:04:41;22.80;99.90
42715;DHT22;28351;51.480;5.706;2022-07-29T10:07:07;22.70;99.90
42715;DHT22;28351;51.480;5.706;2022-07-29T10:09:33;22.60;99.90
42715;DHT22;28351;51.480;5.706;2022-07-29T10:12:10;22.50;99.90
42715;DHT22;28351;51.480;5.706;2022-07-29T10:14:37;22.80;99.90
42715;DHT22;28351;51.480;5.706;2022-07-29T10:17:04;23.10;99.90
42715;DHT22;28351;51.480;5.706;2022-07-29T10:19:31;23.40;99.90
42715;DHT22;28351;51.480;5.706;2022-07-29T10:22:04;23.60;99.90
42715;DHT22;28351;51.480;5.706;2022-07-29T10:24:31;23.80;99.90
42715;DHT22;28351;51.480;5.706;2022-07-29T10:27:01;23.50;99.90
42715;DHT22;28351;51.480;5.706;2022-07-29T10:29:28;23.60;99.90
42715;DHT22;28351;51.480;5.706;2022-07-29T10:32:09;23.90;99.90
42715;DHT22;28351;51.480;5.706;2022-07-29T10:37:23;23.90;99.90
42715;DHT22;28351;51.480;5.706;2022-07-29T10:40:03;24.00;99.90
42715;DHT22;28351;51.480;5.706;2022-07-29T10:42:53;24.10;99.90
42715;DHT22;28351;51.480;5.706;2022-07-29T10:45:19;24.30;99.90
42715;DHT22;28351;51.480;5.706;2022-07-29T10:47:45;24.50;99.90
42715;DHT22;28351;51.480;5.706;2022-07-29T10:50:11;24.80;99.90
42715;DHT22;28351;51.480;5.706;2022-07-29T10:52:53;25.10;99.90
42715;DHT22;28351;51.480;5.706;2022-07-29T10:55:35;25.30;99.90
42715;DHT22;28351;51.480;5.706;2022-07-29T10:58:24;25.50;99.90
42715;DHT22;28351;51.480;5.706;2022-07-29T11:00:52;25.80;99.90
42715;DHT22;28351;51.480;5.706;2022-07-29T11:03:46;26.10;99.90
42715;DHT22;28351;51.480;5.706;2022-07-29T11:06:13;26.30;99.90
42715;DHT22;28351;51.480;5.706;2022-07-29T11:08:39;26.60;99.90
42715;DHT22;28351;51.480;5.706;2022-07-29T11:13:47;27.40;99.90
42715;DHT22;28351;51.480;5.706;2022-07-29T11:16:16;27.20;99.90
42715;DHT22;28351;51.480;5.706;2022-07-29T11:21:44;28.10;99.90
42715;DHT22;28351;51.480;5.706;2022-07-29T11:24:19;28.10;99.90
42715;DHT22;28351;51.480;5.706;2022-07-29T11:27:23;28.70;99.90
42715;DHT22;28351;51.480;5.706;2022-07-29T11:29:57;29.20;99.90
42715;DHT22;28351;51.480;5.706;2022-07-29T11:32:25;30.20;99.90
42715;DHT22;28351;51.480;5.706;2022-07-29T11:35:19;31.40;98.10
42715;DHT22;28351;51.480;5.706;2022-07-29T11:38:23;31.00;97.60
42715;DHT22;28351;51.480;5.706;2022-07-29T11:40:33;31.10;97.20
42715;DHT22;28351;51.480;5.706;2022-07-29T11:42:58;31.40;96.40
42715;DHT22;28351;51.480;5.706;2022-07-29T11:45:25;32.00;96.70
42715;DHT22;28351;51.480;5.706;2022-07-29T11:47:56;32.20;96.50
42715;DHT22;28351;51.480;5.706;2022-07-29T11:50:36;32.50;95.80
42715;DHT22;28351;51.480;5.706;2022-07-29T11:53:10;32.70;95.20
42715;DHT22;28351;51.480;5.706;2022-07-29T11:55:38;32.40;95.20
42715;DHT22;28351;51.480;5.706;2022-07-29T11:58:04;31.70;95.50
42715;DHT22;28351;51.480;5.706;2022-07-29T12:00:33;32.50;94.40
42715;DHT22;28351;51.480;5.706;2022-07-29T12:03:02;32.50;94.70
42715;DHT22;28351;51.480;5.706;2022-07-29T12:05:43;32.40;95.00
42715;DHT22;28351;51.480;5.706;2022-07-29T12:08:17;32.60;94.80
42715;DHT22;28351;51.480;5.706;2022-07-29T12:10:46;32.70;94.40
42715;DHT22;28351;51.480;5.706;2022-07-29T12:13:13;33.20;93.40
42715;DHT22;28351;51.480;5.706;2022-07-29T12:15:40;33.30;93.60
42715;DHT22;28351;51.480;5.706;2022-07-29T12:18:13;33.60;93.40
42715;DHT22;28351;51.480;5.706;2022-07-29T12:20:39;33.80;93.70
42715;DHT22;28351;51.480;5.706;2022-07-29T12:23:09;33.90;92.70
42715;DHT22;28351;51.480;5.706;2022-07-29T12:25:37;32.20;92.70
42715;DHT22;28351;51.480;5.706;2022-07-29T12:28:11;31.50;94.40
42715;DHT22;28351;51.480;5.706;2022-07-29T12:30:55;32.50;94.20
42715;DHT22;28351;51.480;5.706;2022-07-29T12:33:27;32.70;93.50
42715;DHT22;28351;51.480;5.706;2022-07-29T12:36:03;33.60;93.60
42715;DHT22;28351;51.480;5.706;2022-07-29T12:38:28;34.00;91.90
42715;DHT22;28351;51.480;5.706;2022-07-29T12:40:54;34.30;92.00
42715;DHT22;28351;51.480;5.706;2022-07-29T12:43:22;34.40;91.30
42715;DHT22;28351;51.480;5.706;2022-07-29T12:45:56;32.30;92.60
42715;DHT22;28351;51.480;5.706;2022-07-29T12:48:38;32.00;93.00
42715;DHT22;28351;51.480;5.706;2022-07-29T12:51:05;33.30;92.60
42715;DHT22;28351;51.480;5.706;2022-07-29T12:53:32;34.40;92.50
42715;DHT22;28351;51.480;5.706;2022-07-29T12:55:58;34.10;92.50
42715;DHT22;28351;51.480;5.706;2022-07-29T12:58:41;33.30;92.70
42715;DHT22;28351;51.480;5.706;2022-07-29T13:01:09;33.90;92.10
42715;DHT22;28351;51.480;5.706;2022-07-29T13:03:49;34.50;91.10
42715;DHT22;28351;51.480;5.706;2022-07-29T13:11:34;35.00;91.60
42715;DHT22;28351;51.480;5.706;2022-07-29T13:14:00;34.90;90.00
42715;DHT22;28351;51.480;5.706;2022-07-29T13:16:26;35.30;91.10
42715;DHT22;28351;51.480;5.706;2022-07-29T13:19:10;36.20;90.10
42715;DHT22;28351;51.480;5.706;2022-07-29T13:21:37;36.20;88.90
42715;DHT22;28351;51.480;5.706;2022-07-29T13:24:05;34.80;87.70
42715;DHT22;28351;51.480;5.706;2022-07-29T13:26:31;34.30;89.90
42715;DHT22;28351;51.480;5.706;2022-07-29T13:28:57;34.80;89.60
42715;DHT22;28351;51.480;5.706;2022-07-29T13:31:22;35.10;89.40
42715;DHT22;28351;51.480;5.706;2022-07-29T13:33:51;35.20;88.70
42715;DHT22;28351;51.480;5.706;2022-07-29T13:36:17;35.20;90.00
42715;DHT22;28351;51.480;5.706;2022-07-29T13:38:42;36.00;87.20
42715;DHT22;28351;51.480;5.706;2022-07-29T13:41:08;36.50;86.80
42715;DHT22;28351;51.480;5.706;2022-07-29T13:43:34;36.10;90.10
42715;DHT22;28351;51.480;5.706;2022-07-29T13:46:00;36.80;89.40
42715;DHT22;28351;51.480;5.706;2022-07-29T13:48:25;36.80;85.50
42715;DHT22;28351;51.480;5.706;2022-07-29T13:50:51;36.20;86.90
42715;DHT22;28351;51.480;5.706;2022-07-29T13:53:16;36.20;86.20
42715;DHT22;28351;51.480;5.706;2022-07-29T13:55:42;34.60;86.20
42715;DHT22;28351;51.480;5.706;2022-07-29T13:58:08;32.60;89.40
42715;DHT22;28351;51.480;5.706;2022-07-29T14:00:33;31.20;90.50
42715;DHT22;28351;51.480;5.706;2022-07-29T14:02:59;32.00;89.00
42715;DHT22;28351;51.480;5.706;2022-07-29T14:05:24;34.00;87.10
42715;DHT22;28351;51.480;5.706;2022-07-29T14:07:50;34.50;86.50
42715;DHT22;28351;51.480;5.706;2022-07-29T14:10:15;35.50;87.00
42715;DHT22;28351;51.480;5.706;2022-07-29T14:12:41;35.60;84.90
42715;DHT22;28351;51.480;5.706;2022-07-29T14:15:07;35.40;86.30
42715;DHT22;28351;51.480;5.706;2022-07-29T14:17:33;34.20;86.10
42715;DHT22;28351;51.480;5.706;2022-07-29T14:19:59;33.20;88.20
42715;DHT22;28351;51.480;5.706;2022-07-29T14:22:25;34.40;88.10
42715;DHT22;28351;51.480;5.706;2022-07-29T14:24:50;35.10;85.50
42715;DHT22;28351;51.480;5.706;2022-07-29T14:27:16;35.90;85.70
42715;DHT22;28351;51.480;5.706;2022-07-29T14:29:42;36.10;86.30
42715;DHT22;28351;51.480;5.706;2022-07-29T14:32:09;36.60;85.10
42715;DHT22;28351;51.480;5.706;2022-07-29T14:34:36;36.80;84.40
42715;DHT22;28351;51.480;5.706;2022-07-29T14:37:03;36.70;83.90
42715;DHT22;28351;51.480;5.706;2022-07-29T14:39:30;37.10;82.40
42715;DHT22;28351;51.480;5.706;2022-07-29T14:41:56;37.20;83.00
42715;DHT22;28351;51.480;5.706;2022-07-29T14:44:23;37.60;84.70
42715;DHT22;28351;51.480;5.706;2022-07-29T14:46:49;38.00;82.70
42715;DHT22;28351;51.480;5.706;2022-07-29T14:49:15;37.60;82.70
42715;DHT22;28351;51.480;5.706;2022-07-29T14:51:40;37.30;82.00
42715;DHT22;28351;51.480;5.706;2022-07-29T14:54:06;37.50;81.20
42715;DHT22;28351;51.480;5.706;2022-07-29T14:56:32;36.90;81.30
42715;DHT22;28351;51.480;5.706;2022-07-29T14:58:58;35.30;82.40
42715;DHT22;28351;51.480;5.706;2022-07-29T15:01:24;34.10;83.70
42715;DHT22;28351;51.480;5.706;2022-07-29T15:03:50;34.10;82.90
42715;DHT22;28351;51.480;5.706;2022-07-29T15:06:16;33.90;82.70
42715;DHT22;28351;51.480;5.706;2022-07-29T15:08:41;32.20;85.10
42715;DHT22;28351;51.480;5.706;2022-07-29T15:11:09;31.30;85.90
42715;DHT22;28351;51.480;5.706;2022-07-29T15:13:35;32.40;85.90
42715;DHT22;28351;51.480;5.706;2022-07-29T15:16:00;33.20;85.70
42715;DHT22;28351;51.480;5.706;2022-07-29T15:18:26;33.80;84.70
42715;DHT22;28351;51.480;5.706;2022-07-29T15:20:52;35.00;82.60
42715;DHT22;28351;51.480;5.706;2022-07-29T15:23:17;35.50;82.00
42715;DHT22;28351;51.480;5.706;2022-07-29T15:25:43;34.60;80.40
42715;DHT22;28351;51.480;5.706;2022-07-29T15:28:08;35.10;83.90
42715;DHT22;28351;51.480;5.706;2022-07-29T15:30:35;34.30;82.30
42715;DHT22;28351;51.480;5.706;2022-07-29T15:33:06;33.20;84.40
42715;DHT22;28351;51.480;5.706;2022-07-29T15:35:32;33.10;84.80
42715;DHT22;28351;51.480;5.706;2022-07-29T15:37:58;33.40;83.20
42715;DHT22;28351;51.480;5.706;2022-07-29T15:40:24;32.40;85.00
42715;DHT22;28351;51.480;5.706;2022-07-29T15:42:49;31.00;84.30
42715;DHT22;28351;51.480;5.706;2022-07-29T15:45:15;29.80;85.60
42715;DHT22;28351;51.480;5.706;2022-07-29T15:47:40;29.30;88.20
42715;DHT22;28351;51.480;5.706;2022-07-29T15:50:06;28.80;87.30
42715;DHT22;28351;51.480;5.706;2022-07-29T15:52:37;28.60;87.60
42715;DHT22;28351;51.480;5.706;2022-07-29T15:55:02;28.40;88.40
42715;DHT22;28351;51.480;5.706;2022-07-29T15:57:28;28.50;89.70
42715;DHT22;28351;51.480;5.706;2022-07-29T15:59:54;28.90;88.00
42715;DHT22;28351;51.480;5.706;2022-07-29T16:02:19;30.70;90.30
42715;DHT22;28351;51.480;5.706;2022-07-29T16:04:45;32.50;84.30